createdAt,value
2022-09-03T00:02:21.160Z,1.00
2022-09-03T00:05:13.135Z,1.17
2022-09-03T00:08:06.956Z,0.93
2022-09-03T00:10:58.292Z,0.70
2022-09-03T00:13:52.432Z,1.00
2022-09-03T00:16:46.213Z,1.07
2022-09-03T00:19:38.067Z,1.00
2022-09-03T00:22:28.596Z,1.00
2022-09-03T00:25:20.543Z,1.00
2022-09-03T00:28:18.826Z,0.90
2022-09-03T00:31:14.927Z,0.80
2022-09-03T00:34:06.471Z,0.90
2022-09-03T00:36:53.083Z,1.27
2022-09-03T00:39:39.829Z,0.90
2022-09-03T00:42:40.234Z,1.00
2022-09-03T00:45:35.158Z,0.83
2022-09-03T00:48:28.496Z,0.83
2022-09-03T00:51:28.320Z,1.03
2022-09-03T00:54:21.563Z,0.90
2022-09-03T00:57:26.018Z,1.20
2022-09-03T01:00:15.016Z,1.00
2022-09-03T01:03:10.353Z,1.10
2022-09-03T01:06:13.599Z,1.10
2022-09-03T01:09:12.403Z,0.97
2022-09-03T01:12:06.807Z,1.33
2022-09-03T01:15:04.691Z,1.20
2022-09-03T01:18:03.441Z,0.97
2022-09-03T01:20:59.603Z,0.80
2022-09-03T01:24:15.102Z,1.00
2022-09-03T01:27:16.503Z,1.07
2022-09-03T01:30:08.028Z,1.00
2022-09-03T01:33:03.846Z,0.97
2022-09-03T01:35:59.192Z,1.23
2022-09-03T01:38:51.432Z,1.10
2022-09-03T01:42:06.485Z,1.10
2022-09-03T01:45:09.752Z,1.20
2022-09-03T01:48:08.033Z,1.00
2022-09-03T01:51:00.349Z,1.20
2022-09-03T01:54:21.360Z,1.00
2022-09-03T01:57:37.120Z,0.90
2022-09-03T02:00:28.128Z,1.40
2022-09-03T02:03:15.328Z,1.03
2022-09-03T02:06:01.938Z,1.40
2022-09-03T02:08:48.589Z,1.37
2022-09-03T02:11:34.888Z,1.10
2022-09-03T02:14:21.801Z,1.20
2022-09-03T02:17:11.084Z,1.20
2022-09-03T02:19:58.220Z,1.20
2022-09-03T02:22:44.922Z,1.80
2022-09-03T02:25:40.029Z,1.10
2022-09-03T02:28:29.042Z,1.10
2022-09-03T02:31:15.694Z,1.23
2022-09-03T02:34:04.286Z,1.27
2022-09-03T02:36:50.668Z,1.30
2022-09-03T02:39:39.387Z,1.47
2022-09-03T02:42:26.694Z,1.47
2022-09-03T02:45:22.519Z,1.30
2022-09-03T02:48:11.789Z,1.60
2022-09-03T02:50:59.615Z,1.30
2022-09-03T02:53:46.343Z,1.30
2022-09-03T02:56:33.090Z,1.27
2022-09-03T02:59:19.539Z,1.20
2022-09-03T03:02:05.972Z,1.50
2022-09-03T03:04:52.363Z,1.27
2022-09-03T03:07:41.939Z,1.40
2022-09-03T03:10:28.387Z,1.20
2022-09-03T03:13:15.280Z,1.20
2022-09-03T03:16:03.367Z,1.40
2022-09-03T03:18:50.882Z,1.30
2022-09-03T03:21:37.323Z,1.17
2022-09-03T03:24:25.160Z,1.50
2022-09-03T03:27:13.250Z,1.30
2022-09-03T03:29:59.830Z,1.40
2022-09-03T03:32:46.282Z,1.30
2022-09-03T03:35:32.573Z,1.30
2022-09-03T03:38:19.081Z,1.47
2022-09-03T03:41:10.888Z,1.30
2022-09-03T03:43:58.681Z,1.43
2022-09-03T03:46:45.439Z,1.17
2022-09-03T03:49:32.111Z,1.40
2022-09-03T03:52:18.443Z,1.43
2022-09-03T03:55:05.491Z,1.30
2022-09-03T03:57:53.437Z,1.50
2022-09-03T04:00:39.847Z,1.30
2022-09-03T04:03:26.312Z,1.60
2022-09-03T04:06:14.285Z,1.43
2022-09-03T04:09:00.664Z,1.40
2022-09-03T04:11:47.031Z,1.33
2022-09-03T04:14:35.292Z,1.03
2022-09-03T04:17:25.121Z,1.43
2022-09-03T04:20:12.087Z,1.17
2022-09-03T04:23:02.142Z,1.20
2022-09-03T04:25:53.676Z,1.60
2022-09-03T04:28:41.996Z,1.37
2022-09-03T04:31:30.414Z,1.23
2022-09-03T04:34:18.210Z,1.07
2022-09-03T04:37:04.538Z,1.30
2022-09-03T04:39:51.064Z,1.10
2022-09-03T04:42:37.912Z,1.20
2022-09-03T04:45:24.162Z,1.13
2022-09-03T04:48:13.540Z,1.40
2022-09-03T04:51:05.911Z,1.30
2022-09-03T04:53:57.965Z,1.50
2022-09-03T04:56:44.368Z,1.30
2022-09-03T04:59:30.689Z,1.10
2022-09-03T05:02:17.062Z,1.33
2022-09-03T05:05:06.214Z,1.30
2022-09-03T05:07:53.518Z,1.50
2022-09-03T05:10:40.192Z,1.30
2022-09-03T05:13:26.742Z,1.10
2022-09-03T05:16:13.766Z,1.37
2022-09-03T05:19:01.645Z,1.40
2022-09-03T05:21:49.520Z,1.20
2022-09-03T05:24:36.000Z,1.37
2022-09-03T05:27:22.292Z,1.00
2022-09-03T05:30:09.392Z,1.50
2022-09-03T05:32:56.083Z,1.20
2022-09-03T05:35:42.539Z,1.13
2022-09-03T05:38:30.401Z,1.30
2022-09-03T05:41:19.282Z,1.43
2022-09-03T05:44:06.203Z,1.30
2022-09-03T05:46:53.528Z,1.30
2022-09-03T05:49:40.168Z,1.23
2022-09-03T05:52:26.919Z,1.30
2022-09-03T05:55:15.222Z,1.67
2022-09-03T05:58:02.053Z,1.10
2022-09-03T06:00:48.396Z,1.50
2022-09-03T06:03:35.339Z,1.27
2022-09-03T06:06:25.542Z,1.40
2022-09-03T06:09:14.379Z,1.33
2022-09-03T06:12:03.979Z,1.37
2022-09-03T06:14:51.208Z,1.50
2022-09-03T06:17:39.272Z,1.30
2022-09-03T06:20:27.865Z,1.13
2022-09-03T06:23:14.497Z,1.00
2022-09-03T06:26:05.072Z,1.30
2022-09-03T06:28:55.067Z,1.30
2022-09-03T06:31:41.521Z,1.33
2022-09-03T06:34:28.637Z,1.23
2022-09-03T06:37:15.030Z,1.20
2022-09-03T06:40:01.396Z,1.40
2022-09-03T06:42:57.999Z,1.50
2022-09-03T06:45:54.897Z,1.30
2022-09-03T06:48:42.473Z,1.20
2022-09-03T06:51:34.015Z,1.50
2022-09-03T06:54:20.636Z,1.20
2022-09-03T06:57:07.212Z,1.30
2022-09-03T06:59:54.693Z,1.20
2022-09-03T07:02:44.907Z,1.43
2022-09-03T07:05:32.225Z,1.27
2022-09-03T07:08:18.832Z,1.53
2022-09-03T07:11:09.069Z,1.40
2022-09-03T07:13:56.898Z,1.20
2022-09-03T07:16:43.808Z,1.40
2022-09-03T07:19:32.325Z,1.23
2022-09-03T07:22:18.684Z,1.10
2022-09-03T07:25:05.652Z,1.43
2022-09-03T07:27:52.419Z,1.40
2022-09-03T07:30:38.960Z,1.10
2022-09-03T07:33:25.408Z,1.53
2022-09-03T07:36:16.395Z,1.10
2022-09-03T07:39:04.284Z,1.10
2022-09-03T07:41:50.976Z,1.47
2022-09-03T07:44:37.244Z,1.50
2022-09-03T07:47:27.105Z,1.70
2022-09-03T07:50:13.890Z,1.30
2022-09-03T07:53:01.616Z,1.30
2022-09-03T07:55:49.362Z,1.13
2022-09-03T07:58:37.044Z,1.30
2022-09-03T08:01:25.749Z,1.27
2022-09-03T08:04:12.324Z,1.40
2022-09-03T08:06:59.980Z,1.50
2022-09-03T08:09:48.045Z,1.33
2022-09-03T08:12:34.437Z,1.20
2022-09-03T08:15:20.874Z,1.60
2022-09-03T08:18:07.450Z,1.13
2022-09-03T08:20:54.195Z,1.20
2022-09-03T08:23:41.623Z,1.40
2022-09-03T08:26:31.451Z,1.20
2022-09-03T08:29:18.253Z,1.40
2022-09-03T08:32:05.646Z,1.30
2022-09-03T08:34:52.672Z,1.40
2022-09-03T08:37:39.330Z,1.40
2022-09-03T08:40:25.840Z,1.00
2022-09-03T08:43:18.938Z,1.13
2022-09-03T08:46:05.588Z,1.30
2022-09-03T08:48:53.073Z,1.10
2022-09-03T08:51:40.403Z,1.23
2022-09-03T08:54:30.795Z,1.10
2022-09-03T08:57:20.327Z,1.40
2022-09-03T09:00:09.248Z,1.30
2022-09-03T09:03:08.774Z,1.30
2022-09-03T09:05:59.823Z,1.40
2022-09-03T09:08:56.609Z,1.20
2022-09-03T09:11:56.530Z,1.23
2022-09-03T09:14:50.751Z,1.17
2022-09-03T09:17:52.418Z,1.53
2022-09-03T09:20:47.444Z,1.40
2022-09-03T09:23:38.887Z,1.40
2022-09-03T09:26:25.496Z,1.57
2022-09-03T09:29:14.397Z,1.80
2022-09-03T09:32:01.235Z,1.30
2022-09-03T09:34:52.227Z,1.33
2022-09-03T09:37:48.858Z,1.30
2022-09-03T09:40:41.435Z,1.40
2022-09-03T09:43:31.367Z,1.17
2022-09-03T09:46:22.713Z,1.50
2022-09-03T09:49:30.054Z,1.40
2022-09-03T09:52:18.175Z,1.63
2022-09-03T09:55:09.824Z,1.50
2022-09-03T09:58:13.997Z,1.60
2022-09-03T10:01:13.134Z,1.40
2022-09-03T10:04:02.148Z,1.60
2022-09-03T10:06:57.151Z,1.10
2022-09-03T10:09:45.039Z,1.40
2022-09-03T10:12:35.902Z,1.60
2022-09-03T10:15:28.601Z,1.70
2022-09-03T10:18:26.378Z,1.33
2022-09-03T10:21:16.943Z,1.30
2022-09-03T10:24:29.991Z,1.43
2022-09-03T10:27:19.375Z,1.40
2022-09-03T10:30:07.930Z,1.53
2022-09-03T10:33:06.392Z,1.20
2022-09-03T10:35:58.103Z,1.10
2022-09-03T10:38:46.133Z,1.90
2022-09-03T10:41:48.028Z,1.40
2022-09-03T10:44:49.912Z,1.47
2022-09-03T10:48:04.306Z,1.37
2022-09-03T10:50:55.048Z,1.40
2022-09-03T10:53:55.719Z,1.13
2022-09-03T10:56:51.456Z,1.40
2022-09-03T10:59:54.392Z,1.53
2022-09-03T11:03:06.278Z,1.33
2022-09-03T11:06:03.001Z,1.40
2022-09-03T11:08:57.135Z,1.37
2022-09-03T11:11:50.418Z,1.40
2022-09-03T11:14:41.918Z,1.40
2022-09-03T11:17:33.252Z,1.30
2022-09-03T11:20:22.224Z,1.50
2022-09-03T11:23:10.909Z,1.30
2022-09-03T11:26:02.322Z,1.40
2022-09-03T11:28:58.354Z,1.40
2022-09-03T11:31:57.806Z,1.30
2022-09-03T11:34:48.983Z,1.17
2022-09-03T11:37:51.076Z,1.30
2022-09-03T11:40:40.126Z,1.30
2022-09-03T11:43:29.196Z,1.50
2022-09-03T11:46:30.019Z,1.50
2022-09-03T11:49:29.956Z,1.30
2022-09-03T11:52:28.134Z,1.50
2022-09-03T11:55:26.316Z,1.43
2022-09-03T11:58:22.088Z,1.17
2022-09-03T12:01:15.000Z,1.30
2022-09-03T12:04:05.757Z,1.20
2022-09-03T12:07:25.274Z,1.37
2022-09-03T12:10:27.230Z,1.27
2022-09-03T12:13:34.402Z,1.30
2022-09-03T12:16:35.831Z,1.37
2022-09-03T12:19:30.390Z,1.40
2022-09-03T12:22:18.779Z,1.37
2022-09-03T12:25:13.130Z,1.10
2022-09-03T12:28:03.695Z,1.33
2022-09-03T12:30:53.459Z,1.30
2022-09-03T12:33:42.869Z,1.40
2022-09-03T12:36:38.722Z,1.57
2022-09-03T12:42:35.558Z,1.13
2022-09-03T12:45:24.270Z,1.37
2022-09-03T12:48:15.584Z,1.10
2022-09-03T12:51:47.721Z,1.50
2022-09-03T12:54:16.014Z,1.57
2022-09-03T12:57:02.953Z,1.20
2022-09-03T12:59:54.032Z,1.10
2022-09-03T13:02:46.302Z,1.40
2022-09-03T13:05:36.555Z,1.50
2022-09-03T13:08:26.555Z,1.17
2022-09-03T13:11:18.206Z,1.40
2022-09-03T13:14:08.268Z,1.30
2022-09-03T13:17:21.580Z,1.27
2022-09-03T13:20:29.331Z,1.30
2022-09-03T13:23:34.164Z,1.10
2022-09-03T13:26:30.163Z,1.10
2022-09-03T13:29:39.662Z,1.20
2022-09-03T13:32:39.992Z,1.23
2022-09-03T13:35:34.311Z,1.40
2022-09-03T13:38:35.078Z,1.40
2022-09-03T13:41:36.619Z,1.40
2022-09-03T13:44:35.755Z,1.50
2022-09-03T13:47:32.175Z,1.30
2022-09-03T13:50:22.109Z,1.13
2022-09-03T13:53:16.043Z,1.20
2022-09-03T13:56:10.027Z,1.00
2022-09-03T13:59:02.569Z,1.50
2022-09-03T14:02:03.919Z,1.00
2022-09-03T14:05:03.531Z,1.30
2022-09-03T14:08:02.448Z,1.40
2022-09-03T14:11:06.513Z,1.47
2022-09-03T14:14:04.744Z,1.40
2022-09-03T14:16:59.333Z,1.30
2022-09-03T14:19:53.968Z,1.30
2022-09-03T14:22:52.041Z,1.50
2022-09-03T14:25:42.781Z,1.30
2022-09-03T14:28:35.545Z,1.20
2022-09-03T14:31:32.306Z,1.23
2022-09-03T14:34:31.236Z,1.60
2022-09-03T14:37:34.154Z,1.23
2022-09-03T14:40:29.075Z,1.10
2022-09-03T14:43:34.329Z,1.43
2022-09-03T14:46:35.243Z,1.60
2022-09-03T14:49:53.092Z,2.27
2022-09-03T14:53:08.541Z,1.97
2022-09-03T14:56:26.321Z,1.40
2022-09-03T14:59:35.697Z,1.27
2022-09-03T15:03:05.264Z,1.53
2022-09-03T15:06:12.628Z,1.30
2022-09-03T15:09:19.067Z,1.27
2022-09-03T15:12:11.476Z,1.20
2022-09-03T15:14:59.519Z,1.23
2022-09-03T15:17:57.519Z,1.17
2022-09-03T15:20:51.210Z,1.13
2022-09-03T15:23:54.726Z,1.30
2022-09-03T15:26:59.216Z,1.30
2022-09-03T15:30:06.049Z,1.20
2022-09-03T15:33:06.602Z,1.30
2022-09-03T15:36:12.705Z,1.40
2022-09-03T15:39:02.630Z,1.33
2022-09-03T15:41:56.024Z,1.30
2022-09-03T15:44:46.968Z,1.13
2022-09-03T15:47:50.788Z,1.13
2022-09-03T15:50:51.873Z,1.20
2022-09-03T15:53:43.345Z,1.20
2022-09-03T15:56:37.005Z,1.60
2022-09-03T15:59:30.760Z,1.13
2022-09-03T16:02:21.679Z,1.33
2022-09-03T16:05:16.398Z,1.30
2022-09-03T16:08:11.424Z,1.30
2022-09-03T16:11:04.862Z,1.20
2022-09-03T16:14:04.512Z,1.30
2022-09-03T16:17:00.549Z,1.30
2022-09-03T16:19:53.356Z,1.20
2022-09-03T16:22:46.037Z,1.47
2022-09-03T16:25:38.649Z,1.20
2022-09-03T16:28:30.984Z,1.43
2022-09-03T16:31:26.666Z,1.57
2022-09-03T16:34:23.238Z,1.37
2022-09-03T16:37:20.513Z,1.30
2022-09-03T16:40:24.521Z,1.37
2022-09-03T16:43:40.313Z,1.70
2022-09-03T16:46:36.935Z,1.30
2022-09-03T16:49:45.789Z,1.33
2022-09-03T16:52:42.903Z,1.50
2022-09-03T16:55:44.808Z,1.20
2022-09-03T16:58:38.331Z,1.40
2022-09-03T17:01:46.650Z,1.17
2022-09-03T17:04:51.859Z,1.37
2022-09-03T17:07:47.856Z,1.30
2022-09-03T17:10:45.475Z,1.30
2022-09-03T17:14:01.809Z,1.17
2022-09-03T17:16:58.476Z,1.40
2022-09-03T17:19:52.671Z,1.33
2022-09-03T17:22:50.154Z,1.50
2022-09-03T17:25:39.848Z,2.07
2022-09-03T17:28:33.088Z,2.53
2022-09-03T17:31:28.868Z,1.40
2022-09-03T17:34:27.308Z,1.47
2022-09-03T17:37:21.192Z,1.23
2022-09-03T17:40:33.952Z,1.60
2022-09-03T17:43:33.663Z,1.60
2022-09-03T17:46:32.006Z,1.17
2022-09-03T17:49:23.131Z,1.50
2022-09-03T17:52:21.091Z,1.67
2022-09-03T17:55:18.136Z,1.60
2022-09-03T17:58:14.153Z,1.63
2022-09-03T18:01:08.988Z,1.70
2022-09-03T18:04:00.315Z,1.60
2022-09-03T18:06:59.969Z,1.60
2022-09-03T18:09:55.600Z,1.60
2022-09-03T18:12:56.223Z,1.70
2022-09-03T18:15:55.382Z,1.43
2022-09-03T18:18:47.795Z,1.93
2022-09-03T18:21:56.055Z,1.40
2022-09-03T18:25:05.824Z,1.70
2022-09-03T18:28:16.216Z,1.50
2022-09-03T18:31:20.237Z,1.77
2022-09-03T18:34:26.843Z,1.60
2022-09-03T18:37:31.358Z,1.57
2022-09-03T18:40:41.850Z,1.83
2022-09-03T18:43:53.648Z,1.53
2022-09-03T18:48:03.419Z,1.40
2022-09-03T18:50:42.886Z,1.70
2022-09-03T18:53:58.908Z,1.80
2022-09-03T18:57:06.730Z,1.50
2022-09-03T19:00:33.291Z,1.80
2022-09-03T19:04:00.432Z,1.30
2022-09-03T19:07:16.968Z,1.73
2022-09-03T19:10:26.336Z,1.40
2022-09-03T19:13:44.445Z,1.40
2022-09-03T19:16:59.959Z,1.40
2022-09-03T19:20:21.229Z,1.60
2022-09-03T19:23:26.938Z,1.60
2022-09-03T19:26:43.657Z,1.70
2022-09-03T19:30:03.820Z,1.60
2022-09-03T19:33:25.724Z,1.83
2022-09-03T19:36:39.777Z,1.80
2022-09-03T19:40:00.311Z,1.53
2022-09-03T19:43:12.089Z,1.60
2022-09-03T19:46:27.225Z,1.60
2022-09-03T19:49:41.316Z,1.97
2022-09-03T19:52:53.266Z,1.77
2022-09-03T19:56:07.427Z,2.10
2022-09-03T19:59:15.069Z,1.90
2022-09-03T20:02:20.194Z,1.80
2022-09-03T20:05:29.492Z,1.80
2022-09-03T20:08:36.104Z,2.10
2022-09-03T20:11:27.857Z,1.73
2022-09-03T20:14:17.596Z,1.60
2022-09-03T20:17:14.741Z,1.80
2022-09-03T20:20:16.479Z,1.57
2022-09-03T20:23:12.806Z,1.67
2022-09-03T20:26:24.965Z,1.90
2022-09-03T20:29:32.080Z,1.73
2022-09-03T20:32:33.515Z,1.70
2022-09-03T20:35:28.224Z,1.60
2022-09-03T20:38:32.619Z,1.83
2022-09-03T20:41:26.087Z,1.57
2022-09-03T20:44:43.988Z,1.57
2022-09-03T20:47:57.159Z,1.70
2022-09-03T20:50:56.490Z,1.50
2022-09-03T20:54:06.271Z,1.47
2022-09-03T20:57:06.036Z,1.50
2022-09-03T21:00:06.270Z,1.60
2022-09-03T21:03:10.469Z,1.77
2022-09-03T21:06:12.223Z,1.80
2022-09-03T21:09:10.121Z,2.00
2022-09-03T21:12:04.271Z,1.60
2022-09-03T21:14:55.900Z,1.97
2022-09-03T21:17:56.896Z,1.83
2022-09-03T21:20:48.439Z,1.97
2022-09-03T21:23:39.276Z,1.93
2022-09-03T21:26:29.321Z,2.17
2022-09-03T21:29:23.210Z,2.00
2022-09-03T21:32:15.525Z,1.93
2022-09-03T21:35:12.096Z,1.97
2022-09-03T21:38:01.688Z,2.27
2022-09-03T21:40:54.715Z,2.10
2022-09-03T21:43:46.520Z,2.00
2022-09-03T21:46:37.433Z,2.20
2022-09-03T21:49:29.445Z,2.20
2022-09-03T21:52:20.817Z,2.13
2022-09-03T21:55:19.271Z,2.37
2022-09-03T21:58:17.174Z,2.77
2022-09-03T22:01:11.616Z,2.00
2022-09-03T22:03:58.150Z,2.20
2022-09-03T22:06:52.644Z,2.40
2022-09-03T22:09:47.391Z,2.37
2022-09-03T22:12:42.182Z,2.43
2022-09-03T22:15:29.739Z,2.40
2022-09-03T22:18:23.979Z,2.20
2022-09-03T22:21:23.484Z,2.73
2022-09-03T22:24:22.942Z,2.50
2022-09-03T22:27:20.557Z,2.40
2022-09-03T22:30:11.314Z,2.47
2022-09-03T22:33:03.784Z,2.30
2022-09-03T22:36:03.602Z,2.17
2022-09-03T22:39:11.744Z,2.50
2022-09-03T22:42:30.587Z,2.50
2022-09-03T22:45:28.537Z,2.40
2022-09-03T22:48:24.803Z,2.50
2022-09-03T22:51:12.697Z,2.57
2022-09-03T22:54:14.296Z,2.77
2022-09-03T22:57:02.419Z,2.43
2022-09-03T22:59:58.055Z,2.20
2022-09-03T23:02:48.401Z,2.57
2022-09-03T23:05:42.404Z,2.50
2022-09-03T23:08:33.426Z,2.30
2022-09-03T23:11:26.773Z,2.40
2022-09-03T23:14:16.620Z,2.17
2022-09-03T23:17:11.326Z,2.40
2022-09-03T23:22:59.757Z,2.87
2022-09-03T23:25:50.568Z,3.07
2022-09-03T23:28:39.534Z,2.80
2022-09-03T23:31:28.050Z,2.70
2022-09-03T23:34:17.176Z,3.43
2022-09-03T23:37:37.961Z,3.10
2022-09-03T23:40:40.347Z,3.17
2022-09-03T23:44:01.517Z,2.90
2022-09-03T23:47:00.692Z,3.03
2022-09-03T23:49:59.102Z,3.17
2022-09-03T23:53:00.567Z,2.87
2022-09-03T23:55:57.200Z,2.77
2022-09-03T23:58:56.310Z,3.00
